Time;durP1;ratioP1;P1;durP2;ratioP2;P2;SDS_P1;SDS_P2;PMS_P1;PMS_P2;Temp;Humidity;BMP_temperature;BMP_pressure;BME280_temperature;BME280_humidity;BME280_pressure;Samples;Min_cycle;Max_cycle;Signal;HPM_P1;HPM_P2
2022/10/11 00:00:34;;;;;;;8.40;5.93;;;19.20;92.70;;;19.27;56.06;99112.63;5098780;28;20040;-76
2022/10/11 00:03:20;;;;;;;10.98;6.25;;;19.20;92.70;;;19.26;55.94;99111.84;5076386;28;20086;-76
2022/10/11 00:05:47;;;;;;;11.93;7.30;;;19.20;92.60;;;19.26;56.16;99111.84;5082141;28;20096;-76
2022/10/11 00:08:14;;;;;;;11.45;6.93;;;19.20;92.80;;;19.23;56.52;99115.22;5099521;28;20475;-76
2022/10/11 00:10:40;;;;;;;10.45;5.60;;;19.20;92.80;;;19.25;56.42;99109.41;5086582;28;20036;-77
2022/10/11 00:13:06;;;;;;;12.57;7.10;;;19.20;92.80;;;19.29;56.69;99124.94;5080779;28;20036;-76
2022/10/11 00:15:32;;;;;;;9.98;6.38;;;19.20;93.00;;;19.23;56.19;99126.25;5084186;28;20062;-75
2022/10/11 00:17:59;;;;;;;8.05;6.63;;;19.20;92.70;;;19.27;56.31;99121.69;5062479;28;20048;-76
2022/10/11 00:20:25;;;;;;;10.48;7.72;;;19.20;92.70;;;19.24;56.27;99122.34;5099002;28;20118;-75
2022/10/11 00:22:51;;;;;;;12.00;7.80;;;19.20;92.70;;;19.26;56.66;99122.84;5095187;28;20036;-75
2022/10/11 00:25:17;;;;;;;13.45;7.55;;;19.20;93.00;;;19.27;56.56;99116.19;5085490;28;20092;-75
2022/10/11 00:27:44;;;;;;;9.23;7.18;;;19.20;93.00;;;19.25;56.50;99118.44;5082498;28;20046;-75
2022/10/11 00:30:10;;;;;;;11.75;7.82;;;19.20;92.80;;;19.24;56.33;99122.34;5071646;28;20040;-75
2022/10/11 00:32:38;;;;;;;11.27;7.60;;;19.20;92.80;;;19.23;56.39;99119.91;5069041;28;20043;-74
2022/10/11 00:35:06;;;;;;;9.60;6.45;;;19.20;92.80;;;19.24;55.91;99122.34;5084561;28;20121;-74
2022/10/11 00:37:33;;;;;;;7.85;5.70;;;19.10;92.70;;;19.22;56.63;99121.03;5093998;28;20116;-74
2022/10/11 00:40:00;;;;;;;29.73;8.85;;;19.10;92.80;;;19.27;56.59;99127.19;5099309;28;20043;-74
2022/10/11 00:42:26;;;;;;;9.98;6.28;;;19.20;92.90;;;19.23;56.53;99129.00;5073447;28;20065;-74
2022/10/11 00:45:13;;;;;;;12.38;7.32;;;19.20;92.90;;;19.23;56.40;99123.47;5073677;28;20039;-74
2022/10/11 00:47:39;;;;;;;11.50;6.55;;;19.10;92.70;;;19.22;56.17;99124.59;5104737;28;20374;-74
2022/10/11 00:50:07;;;;;;;11.02;7.00;;;19.20;92.70;;;19.23;56.12;99123.47;5086823;28;20036;-74
2022/10/11 00:52:36;;;;;;;10.98;6.50;;;19.20;92.60;;;19.22;56.11;99124.59;5071179;28;20040;-74
2022/10/11 00:55:12;;;;;;;10.95;6.85;;;19.20;92.60;;;19.23;56.38;99119.91;5077399;28;20042;-74
2022/10/11 00:57:41;;;;;;;13.65;8.32;;;19.20;92.80;;;19.25;56.31;99129.44;5074556;28;20051;-74
2022/10/11 01:00:09;;;;;;;9.40;7.15;;;19.20;92.80;;;19.24;55.89;99122.34;5089646;28;20134;-74
2022/10/11 01:02:35;;;;;;;10.15;7.10;;;19.20;92.60;;;19.20;56.16;99126.84;5073925;28;20083;-74
2022/10/11 01:05:03;;;;;;;10.70;6.82;;;19.20;92.70;;;19.19;56.17;99128.00;5074316;28;20479;-74
2022/10/11 01:07:30;;;;;;;13.30;7.28;;;19.10;92.60;;;19.19;56.08;99125.25;5085283;28;20051;-74
2022/10/11 01:09:57;;;;;;;12.23;8.48;;;19.10;92.60;;;19.21;56.38;99122.16;5075430;28;20128;-74
2022/10/11 01:12:25;;;;;;;7.95;6.50;;;19.10;92.70;;;19.21;56.38;99127.66;5101676;28;20058;-74
2022/10/11 01:15:06;;;;;;;12.60;7.07;;;19.20;92.80;;;19.17;56.56;99127.50;5067663;28;20035;-74
2022/10/11 01:17:45;;;;;;;10.20;6.65;;;19.10;92.70;;;19.19;56.16;99133.50;5111419;28;20122;-74
2022/10/11 01:20:36;;;;;;;11.50;6.57;;;19.10;92.60;;;19.17;56.15;99123.97;5102226;28;20040;-74
2022/10/11 01:23:24;;;;;;;;;;;19.10;92.70;;;19.17;55.89;99126.72;5100973;28;20063;-74
2022/10/11 01:26:12;;;;;;;9.45;7.35;;;19.10;92.60;;;19.17;56.17;99119.25;5103829;28;19952;-74
2022/10/11 01:29:28;;;;;;;10.35;7.10;;;19.10;92.70;;;19.20;56.29;99124.09;5104048;28;20063;-74
2022/10/11 01:32:14;;;;;;;11.15;6.80;;;19.10;92.80;;;19.17;56.31;99113.75;5104688;28;20069;-74
2022/10/11 01:34:57;;;;;;;10.05;7.00;;;19.10;92.70;;;19.18;55.90;99125.56;5102061;28;20165;-74
2022/10/11 01:37:30;;;;;;;12.98;7.75;;;19.10;92.70;;;19.17;55.98;99116.50;5094532;28;20474;-74
2022/10/11 01:40:17;;;;;;;12.15;8.10;;;19.00;92.60;;;19.15;56.20;99116.03;5090501;28;20480;-74
2022/10/11 01:42:43;;;;;;;8.90;6.85;;;19.10;92.60;;;19.15;56.34;99123.47;5095219;28;20089;-74
2022/10/11 01:45:15;;;;;;;10.93;7.95;;;19.10;92.70;;;19.16;56.52;99130.56;5103618;28;20047;-74
2022/10/11 01:47:41;;;;;;;13.07;8.60;;;19.10;92.70;;;19.13;56.38;99126.53;5094827;28;20063;-74
2022/10/11 01:50:36;;;;;;;11.63;8.25;;;19.10;92.70;;;19.15;56.43;99124.25;5101944;28;20058;-74
2022/10/11 01:53:38;;;;;;;12.68;8.43;;;19.10;92.60;;;19.15;56.04;99135.25;5104950;28;20485;-74
2022/10/11 01:56:35;;;;;;;11.75;7.72;;;19.10;92.60;;;19.13;55.85;99132.03;5106809;28;20059;-74
2022/10/11 01:59:08;;;;;;;11.40;8.30;;;19.00;92.50;;;19.17;56.28;99130.25;5104523;28;20514;-74
2022/10/11 02:01:53;;;;;;;13.45;7.53;;;19.10;92.70;;;19.15;56.12;99139.97;5104773;28;20043;-74
2022/10/11 02:04:43;;;;;;;11.82;7.93;;;19.10;92.70;;;19.14;56.12;99133.66;5101694;28;20047;-74
2022/10/11 02:07:34;;;;;;;13.88;8.70;;;19.10;92.60;;;19.14;56.07;99135.59;5090633;28;20036;-74
2022/10/11 02:10:39;;;;;;;14.05;7.80;;;19.10;92.60;;;19.11;55.87;99134.31;5087853;28;20044;-75
2022/10/11 02:13:14;;;;;;;10.20;8.13;;;19.10;92.60;;;19.12;56.04;99141.41;5107871;27;20044;-74
2022/10/11 02:15:41;;;;;;;10.13;7.40;;;19.10;92.50;;;19.12;56.41;99138.66;5071877;28;20414;-74
2022/10/11 02:18:14;;;;;;;13.70;8.00;;;19.10;92.70;;;19.14;56.32;99132.84;5055222;28;20046;-74
2022/10/11 02:20:40;;;;;;;8.88;7.10;;;19.10;92.70;;;19.11;56.32;99133.47;5073479;28;20066;-74
2022/10/11 02:23:14;;;;;;;11.98;8.77;;;19.10;92.60;;;19.11;56.14;99131.56;5087944;28;20051;-74
2022/10/11 02:25:40;;;;;;;10.68;8.13;;;19.00;92.50;;;19.11;55.93;99136.22;5089721;28;20032;-74
2022/10/11 02:28:10;;;;;;;13.13;7.55;;;19.10;92.50;;;19.08;55.89;99130.25;5090419;28;20040;-74
2022/10/11 02:30:36;;;;;;;11.40;6.53;;;19.00;92.50;;;19.11;56.25;99139.81;5085452;28;20051;-74
2022/10/11 02:33:03;;;;;;;10.07;6.93;;;19.00;92.60;;;19.09;55.95;99137.38;5074426;28;20514;-74
2022/10/11 02:35:29;;;;;;;11.40;6.90;;;19.10;92.70;;;19.10;56.40;99132.66;5072163;28;20044;-74
2022/10/11 02:38:08;;;;;;;12.05;7.97;;;19.10;92.60;;;19.06;56.19;99132.53;5075908;28;20417;-74
2022/10/11 02:40:39;;;;;;;10.93;7.28;;;19.10;92.50;;;19.07;55.96;99133.31;5092916;28;20067;-74
2022/10/11 02:43:29;;;;;;;;;;;19.10;92.50;;;19.06;55.95;99134.47;5068749;28;20107;-74
2022/10/11 02:45:59;;;;;;;12.68;7.95;;;19.00;92.40;;;19.08;56.02;99130.25;5091561;28;19925;-74
2022/10/11 02:48:28;;;;;;;11.37;7.73;;;19.00;92.50;;;19.11;56.25;99142.56;5078336;28;20039;-74
2022/10/11 02:50:55;;;;;;;12.85;8.07;;;19.00;92.60;;;19.07;56.38;99144.31;5095189;28;20379;-74
2022/10/11 02:53:22;;;;;;;10.63;7.32;;;19.10;92.70;;;19.08;55.98;99149.50;5086377;28;20044;-74
2022/10/11 02:55:48;;;;;;;9.57;7.47;;;19.00;92.50;;;19.09;55.97;99150.31;5055746;28;20483;-74
2022/10/11 02:58:14;;;;;;;13.07;8.20;;;19.00;92.40;;;19.07;55.74;99144.31;5054091;28;20036;-74
2022/10/11 03:00:41;;;;;;;12.75;8.45;;;19.00;92.40;;;19.06;56.03;99143.50;5102672;28;20502;-74
2022/10/11 03:03:09;;;;;;;9.60;6.72;;;19.00;92.50;;;19.08;56.09;99143.19;5086802;28;20060;-74
2022/10/11 03:05:39;;;;;;;13.90;7.30;;;19.00;92.60;;;19.11;56.32;99145.31;5101613;28;20035;-74
2022/10/11 03:08:09;;;;;;;11.27;6.90;;;19.00;92.60;;;19.10;55.98;99149.16;5098687;28;20438;-74
2022/10/11 03:10:38;;;;;;;11.27;7.30;;;19.00;92.50;;;19.09;55.72;99147.56;5076438;28;20253;-74
2022/10/11 03:13:03;;;;;;;16.38;8.75;;;19.00;92.40;;;19.07;55.84;99150.63;5107264;28;20039;-74
2022/10/11 03:15:29;;;;;;;10.60;7.97;;;19.00;92.40;;;19.06;55.81;99151.75;5105236;28;20036;-74
2022/10/11 03:17:55;;;;;;;10.75;6.70;;;19.00;92.40;;;19.05;56.05;99152.88;5082320;28;20038;-74
2022/10/11 03:20:22;;;;;;;14.95;7.80;;;19.00;92.50;;;19.07;56.28;99149.81;5069648;28;20043;-74
2022/10/11 03:22:48;;;;;;;11.25;7.22;;;19.00;92.60;;;19.08;56.20;99145.94;5086134;28;20047;-75
2022/10/11 03:25:15;;;;;;;11.77;6.97;;;19.00;92.60;;;19.05;56.16;99146.56;5067008;28;20735;-74
2022/10/11 03:27:41;;;;;;;11.13;7.32;;;19.00;92.50;;;19.06;55.77;99150.97;5098950;28;20068;-74
2022/10/11 03:30:08;;;;;;;9.43;7.00;;;19.00;92.50;;;19.05;55.99;99152.88;5105940;28;20038;-74
2022/10/11 03:32:35;;;;;;;13.90;8.15;;;19.00;92.50;;;19.03;55.91;99157.06;5098126;28;20042;-74
2022/10/11 03:35:01;;;;;;;13.02;7.75;;;19.00;92.50;;;19.04;56.25;99156.78;5102290;28;20048;-75
2022/10/11 03:37:26;;;;;;;10.63;7.60;;;19.00;92.60;;;19.04;56.19;99159.53;5104304;28;20039;-76
2022/10/11 03:39:53;;;;;;;13.15;8.27;;;19.00;92.60;;;19.06;56.17;99154.50;5099374;28;20035;-76
2022/10/11 03:42:19;;;;;;;10.00;6.70;;;19.00;92.60;;;19.05;55.95;99157.56;5069218;28;20032;-76
2022/10/11 03:44:48;;;;;;;11.07;7.93;;;19.00;92.50;;;19.07;55.74;99156.13;5089913;28;20047;-76
2022/10/11 03:47:14;;;;;;;8.55;6.60;;;19.00;92.50;;;19.04;55.77;99153.22;5068421;28;20040;-76
2022/10/11 03:49:40;;;;;;;10.40;7.13;;;19.00;92.50;;;19.05;55.99;99168.56;5097213;28;20047;-76
2022/10/11 03:52:06;;;;;;;10.75;7.13;;;19.00;92.40;;;19.04;56.00;99164.22;5085899;28;20065;-75
2022/10/11 03:54:32;;;;;;;11.57;7.88;;;19.00;92.60;;;19.02;55.56;99166.47;5079546;28;20044;-75
2022/10/11 03:56:59;;;;;;;9.77;7.55;;;19.00;92.20;;;19.01;55.51;99162.13;5095594;28;20118;-76
2022/10/11 03:59:25;;;;;;;9.73;7.63;;;19.00;92.10;;;18.98;55.15;99185.56;5085114;28;20141;-75
2022/10/11 04:01:51;;;;;;;11.18;8.00;;;18.90;92.10;;;18.99;55.05;99181.66;5076322;28;20927;-76
2022/10/11 04:04:17;;;;;;;9.35;7.72;;;19.00;92.10;;;19.03;55.57;99185.41;5101209;28;20032;-76
2022/10/11 04:06:43;;;;;;;11.77;7.75;;;19.00;92.30;;;19.00;55.72;99171.47;5087250;28;20039;-76
2022/10/11 04:09:09;;;;;;;11.40;7.43;;;19.00;92.40;;;19.03;55.42;99181.81;5097909;28;20036;-76
2022/10/11 04:11:35;;;;;;;12.32;8.07;;;19.00;92.20;;;19.00;55.18;99175.03;5098171;28;20500;-76
2022/10/11 04:14:01;;;;;;;9.13;7.13;;;19.00;92.10;;;19.00;54.83;99172.28;5085679;28;20036;-76
2022/10/11 04:16:27;;;;;;;11.40;7.68;;;19.00;92.10;;;18.96;54.69;99170.50;5072664;28;20142;-76
2022/10/11 04:18:53;;;;;;;11.48;7.72;;;19.00;91.90;;;18.94;54.80;99167.25;5086080;28;20077;-75
2022/10/11 04:21:19;;;;;;;13.90;8.20;;;19.00;92.00;;;18.98;55.50;99169.06;5092080;28;20035;-75
2022/10/11 04:23:45;;;;;;;15.93;7.72;;;19.00;92.10;;;19.02;55.29;99174.72;5100506;28;20474;-76
2022/10/11 04:26:11;;;;;;;10.05;7.47;;;19.00;92.10;;;18.98;55.21;99179.22;5081261;28;20036;-76
2022/10/11 04:28:38;;;;;;;12.13;8.25;;;19.00;92.10;;;18.98;55.01;99179.22;5073604;28;20040;-76
2022/10/11 04:31:06;;;;;;;10.20;7.35;;;19.00;91.90;;;18.98;54.57;99174.56;5104508;28;20047;-76
2022/10/11 04:33:33;;;;;;;10.95;8.07;;;19.00;91.80;;;18.97;54.29;99178.41;5104522;28;20040;-76
2022/10/11 04:35:58;;;;;;;13.40;8.80;;;19.00;91.80;;;18.98;54.84;99174.56;5092227;28;20050;-75
2022/10/11 04:38:25;;;;;;;12.85;7.68;;;19.00;92.10;;;19.03;55.02;99181.81;5104440;28;20047;-75
2022/10/11 04:40:51;;;;;;;12.45;8.50;;;19.00;92.10;;;18.98;54.94;99185.56;5104944;28;20040;-76
2022/10/11 04:43:17;;;;;;;10.93;6.82;;;19.00;92.10;;;18.92;54.82;99186.00;5109293;28;20035;-75
2022/10/11 04:45:43;;;;;;;10.07;7.03;;;19.00;91.90;;;18.92;54.71;99192.31;5089502;28;20032;-75
2022/10/11 04:48:09;;;;;;;13.18;7.78;;;18.90;91.80;;;18.93;54.54;99187.63;5101288;28;20088;-75
2022/10/11 04:50:36;;;;;;;12.07;7.32;;;18.90;91.70;;;18.93;54.38;99195.88;5089683;28;20067;-75
2022/10/11 04:53:02;;;;;;;10.75;7.78;;;18.90;91.70;;;18.99;54.84;99200.09;5075160;28;20084;-75
2022/10/11 04:55:28;;;;;;;11.52;6.72;;;19.00;92.00;;;18.98;54.86;99187.47;5100313;28;20039;-76
2022/10/11 04:57:54;;;;;;;8.98;7.18;;;19.00;92.10;;;19.01;54.61;99189.59;5073369;28;20732;-76
2022/10/11 05:00:21;;;;;;;10.38;6.82;;;18.90;92.00;;;18.93;54.57;99198.63;5102168;28;20594;-76
2022/10/11 05:02:47;;;;;;;12.70;8.23;;;19.00;91.80;;;18.96;54.21;99198.00;5065993;28;20056;-75
2022/10/11 05:05:16;;;;;;;10.75;7.30;;;18.90;91.70;;;18.91;54.21;99206.41;5087686;28;20040;-75
2022/10/11 05:07:43;;;;;;;12.30;7.53;;;18.90;91.60;;;18.94;54.25;99200.25;5101521;28;20040;-75
2022/10/11 05:10:09;;;;;;;15.05;8.27;;;18.90;91.70;;;18.98;54.51;99202.06;5090840;28;20070;-75
2022/10/11 05:12:35;;;;;;;10.15;7.35;;;18.90;91.90;;;18.97;54.77;99208.66;5089724;28;20869;-75
2022/10/11 05:15:01;;;;;;;7.32;6.40;;;19.00;92.00;;;18.94;54.51;99203.81;5070742;28;20046;-76
2022/10/11 05:17:27;;;;;;;11.10;7.22;;;19.00;91.80;;;18.96;54.03;99211.75;5097469;28;20047;-79
2022/10/11 05:19:53;;;;;;;9.70;7.20;;;19.00;91.60;;;18.96;53.99;99214.50;5087658;28;20542;-77
2022/10/11 05:22:20;;;;;;;12.43;8.45;;;18.90;91.50;;;18.93;53.86;99215.94;5096102;28;20066;-76
2022/10/11 05:24:45;;;;;;;10.27;7.13;;;19.00;91.50;;;18.98;54.09;99224.03;5074267;28;20043;-77
2022/10/11 05:27:11;;;;;;;9.45;7.85;;;19.00;91.70;;;18.96;54.65;99231.78;5072003;28;20039;-79
2022/10/11 05:29:37;;;;;;;13.38;7.63;;;19.00;91.80;;;18.96;54.63;99223.53;5082367;28;20043;-79
2022/10/11 05:32:04;;;;;;;9.57;7.15;;;19.00;91.90;;;18.96;54.09;99234.53;5054826;28;20049;-79
2022/10/11 05:34:33;;;;;;;9.98;6.60;;;19.00;91.60;;;18.95;53.89;99235.66;5098378;28;20031;-80
2022/10/11 05:36:59;;;;;;;10.75;7.60;;;19.00;91.50;;;18.96;53.83;99245.53;5099384;27;20114;-76
2022/10/11 05:39:25;;;;;;;9.90;6.38;;;19.00;91.50;;;18.94;53.73;99236.78;5085770;28;20046;-74
2022/10/11 05:41:51;;;;;;;9.48;6.95;;;19.00;91.40;;;18.98;54.52;99242.44;5064022;28;20040;-74
2022/10/11 05:44:17;;;;;;;11.70;7.97;;;18.90;91.70;;;19.01;54.44;99247.34;5087432;28;20044;-74
2022/10/11 05:46:43;;;;;;;10.55;7.22;;;19.00;91.80;;;19.02;54.14;99249.75;5073083;28;20044;-74
2022/10/11 05:49:09;;;;;;;10.30;8.02;;;19.00;91.60;;;18.98;53.82;99258.94;5096895;28;20044;-74
2022/10/11 05:51:37;;;;;;;12.20;7.47;;;19.00;91.50;;;18.98;53.78;99258.94;5093398;28;20075;-74
2022/10/11 05:54:03;;;;;;;12.45;7.35;;;19.00;91.70;;;19.03;53.79;99258.81;5087908;28;20135;-74
2022/10/11 05:56:29;;;;;;;9.70;6.55;;;19.00;91.50;;;19.05;53.70;99264.81;5094679;28;20570;-74
2022/10/11 05:58:55;;;;;;;9.57;6.45;;;19.00;91.60;;;19.03;53.86;99264.31;5087083;28;20046;-74
2022/10/11 06:01:24;;;;;;;10.45;7.40;;;19.00;91.60;;;19.04;53.89;99264.00;5086606;28;20115;-74
2022/10/11 06:03:51;;;;;;;8.95;5.97;;;19.00;91.60;;;19.04;54.13;99268.69;5056695;28;20052;-74
2022/10/11 06:06:17;;;;;;;14.50;6.80;;;19.00;91.70;;;19.03;54.21;99269.78;5096292;28;20048;-74
2022/10/11 06:08:43;;;;;;;9.60;7.28;;;19.00;91.80;;;19.05;54.44;99273.84;5103895;28;20089;-74
2022/10/11 06:11:15;;;;;;;8.88;6.10;;;19.00;91.80;;;19.04;54.13;99279.69;5079241;28;20422;-74
2022/10/11 06:13:42;;;;;;;10.38;6.55;;;19.00;91.70;;;19.04;54.11;99277.75;5084965;28;20039;-74
2022/10/11 06:16:08;;;;;;;10.27;6.68;;;19.00;91.60;;;19.07;54.15;99277.09;5097550;28;20078;-74
2022/10/11 06:18:34;;;;;;;8.25;6.35;;;19.00;91.60;;;19.10;53.82;99278.41;5083339;28;20089;-74
2022/10/11 06:21:00;;;;;;;10.38;7.30;;;19.10;91.60;;;19.13;54.32;99285.19;5096181;28;21049;-74
2022/10/11 06:23:26;;;;;;;8.45;6.18;;;19.10;91.80;;;19.14;54.27;99286.84;5086175;28;20044;-75
2022/10/11 06:26:00;;;;;;;9.30;6.85;;;19.10;91.80;;;19.12;54.14;99289.09;5099794;28;20577;-74
2022/10/11 06:28:27;;;;;;;9.65;7.30;;;19.10;91.70;;;19.12;54.22;99287.16;5084195;28;20111;-75
2022/10/11 06:30:54;;;;;;;8.60;6.63;;;19.00;91.70;;;19.16;53.89;99290.06;5099331;28;20052;-75
2022/10/11 06:33:20;;;;;;;9.85;6.60;;;19.10;91.70;;;19.16;53.79;99290.91;5085780;28;20063;-75
2022/10/11 06:35:47;;;;;;;9.98;6.63;;;19.10;91.60;;;19.17;53.95;99298.00;5099324;28;20047;-74
2022/10/11 06:38:13;;;;;;;8.73;6.57;;;19.10;91.70;;;19.17;54.08;99300.75;5081194;28;20040;-75
2022/10/11 06:40:38;;;;;;;10.40;5.90;;;19.10;91.80;;;19.18;54.25;99298.81;5089996;28;20747;-74
2022/10/11 06:43:05;;;;;;;10.20;7.13;;;19.20;91.80;;;19.16;54.17;99304.66;5072732;28;20071;-74
2022/10/11 06:45:31;;;;;;;9.68;7.05;;;19.20;91.70;;;19.15;54.13;99316.75;5100498;28;20046;-74
2022/10/11 06:47:56;;;;;;;7.35;6.32;;;19.10;91.70;;;19.17;53.98;99325.50;5081747;28;20040;-74
2022/10/11 06:50:23;;;;;;;7.93;6.35;;;19.10;91.70;;;19.17;53.88;99327.44;5079700;28;20082;-74
2022/10/11 06:52:49;;;;;;;8.80;6.20;;;19.20;91.70;;;19.20;54.25;99335.06;5097833;28;20478;-74
2022/10/11 06:55:15;;;;;;;9.50;6.82;;;19.20;91.80;;;19.18;54.15;99338.09;5085996;28;20849;-75
2022/10/11 06:57:41;;;;;;;7.50;5.65;;;19.20;91.80;;;19.18;54.35;99346.38;5081382;28;20066;-75
2022/10/11 07:00:08;;;;;;;15.85;6.30;;;19.20;92.10;;;19.18;54.03;99340.84;5097124;28;20549;-74
2022/10/11 07:02:34;;;;;;;8.55;6.00;;;19.20;91.70;;;19.17;54.09;99336.50;5098533;28;20090;-74
2022/10/11 07:05:00;;;;;;;8.93;6.18;;;19.20;91.70;;;19.21;53.99;99342.16;5078362;28;20139;-74
2022/10/11 07:07:26;;;;;;;8.50;5.97;;;19.20;91.70;;;19.24;53.92;99336.06;5095583;28;20035;-74
2022/10/11 07:09:52;;;;;;;7.63;5.93;;;19.20;91.60;;;19.25;53.99;99343.16;5098823;28;20047;-74
2022/10/11 07:12:18;;;;;;;10.60;6.32;;;19.20;91.70;;;19.28;54.07;99343.34;5093457;28;20047;-74
2022/10/11 07:14:44;;;;;;;8.98;6.10;;;19.30;91.70;;;19.28;53.96;99343.34;5104194;28;20524;-75
2022/10/11 07:17:10;;;;;;;11.40;6.60;;;19.30;91.60;;;19.26;53.89;99353.06;5080704;28;20039;-74
2022/10/11 07:19:36;;;;;;;9.85;5.80;;;19.30;91.60;;;19.24;53.65;99358.84;5068920;28;20104;-76
2022/10/11 07:22:02;;;;;;;11.15;5.57;;;19.30;91.60;;;19.26;53.91;99355.81;5082721;28;20044;-76
2022/10/11 07:24:29;;;;;;;8.70;6.38;;;19.30;91.60;;;19.28;54.08;99362.59;5081951;28;20127;-76
2022/10/11 07:26:56;;;;;;;9.65;6.18;;;19.30;91.70;;;19.29;54.17;99366.16;5045688;28;20049;-76
2022/10/11 07:29:22;;;;;;;7.63;5.45;;;19.30;91.80;;;19.29;54.03;99371.66;5094748;28;20481;-76
2022/10/11 07:31:51;;;;;;;9.32;5.95;;;19.30;91.80;;;19.25;53.97;99368.72;5066042;28;20052;-76
2022/10/11 07:48:23;;;;;;;10.02;5.95;;;19.30;91.70;;;19.32;54.08;99392.22;5134804;27;20035;-76
2022/10/11 07:50:49;;;;;;;6.50;4.63;;;19.30;91.70;;;19.27;53.91;99388.47;5122004;27;20529;-76
2022/10/11 07:53:15;;;;;;;8.52;5.82;;;19.30;91.60;;;19.29;53.95;99391.72;5067267;28;20065;-76
2022/10/11 07:55:41;;;;;;;7.78;4.95;;;19.40;91.60;;;19.34;53.93;99395.47;5083201;28;20047;-76
2022/10/11 07:58:09;;;;;;;7.72;5.80;;;19.30;91.60;;;19.34;54.06;99400.97;5089066;28;20132;-76
2022/10/11 08:00:35;;;;;;;8.73;5.68;;;19.40;91.70;;;19.36;54.20;99393.19;5071152;27;20118;-76
2022/10/11 08:03:05;;;;;;;6.78;5.05;;;19.40;91.80;;;19.34;54.19;99393.53;5089926;27;20055;-76
2022/10/11 08:05:32;;;;;;;9.52;5.75;;;19.40;91.70;;;19.34;53.85;99401.78;5054961;27;20127;-75
2022/10/11 08:07:58;;;;;;;8.82;5.20;;;19.40;91.60;;;19.35;53.93;99399.84;5087993;28;20126;-76
2022/10/11 08:10:25;;;;;;;7.28;5.22;;;19.40;91.60;;;19.36;53.81;99404.19;5084820;28;20749;-76
2022/10/11 08:12:52;;;;;;;7.05;5.45;;;19.40;91.60;;;19.39;53.93;99400.84;5095955;28;20043;-75
2022/10/11 08:15:18;;;;;;;8.52;5.78;;;19.40;91.70;;;19.42;53.97;99394.69;5098315;28;20052;-75
2022/10/11 08:17:45;;;;;;;7.75;5.65;;;19.40;91.70;;;19.47;54.10;99402.81;5076807;28;20037;-75
2022/10/11 08:20:12;;;;;;;8.70;5.20;;;19.50;91.70;;;19.48;53.78;99396.97;5086990;28;20097;-75
2022/10/11 08:22:38;;;;;;;6.55;5.55;;;19.50;91.60;;;19.50;53.32;99399.41;5085427;28;20070;-76
2022/10/11 08:25:05;;;;;;;8.50;5.57;;;19.50;91.50;;;19.53;53.34;99407.81;5083821;28;20051;-75
2022/10/11 08:27:31;;;;;;;8.85;4.82;;;19.50;91.50;;;19.58;53.37;99404.13;5085975;28;20504;-75
2022/10/11 08:29:57;;;;;;;9.75;6.55;;;19.50;91.50;;;19.65;53.29;99412.72;5099527;28;20043;-75
2022/10/11 08:32:23;;;;;;;6.65;5.25;;;19.50;91.60;;;19.66;53.55;99403.34;5118601;27;20051;-75
2022/10/11 08:34:49;;;;;;;7.07;4.90;;;19.60;92.00;;;19.70;53.24;99411.81;5088564;28;20038;-75
2022/10/11 08:37:15;;;;;;;6.72;5.20;;;19.60;91.60;;;19.70;52.93;99404.34;5122136;28;20034;-75
2022/10/11 08:39:41;;;;;;;7.43;4.78;;;19.60;91.40;;;19.71;53.08;99402.41;5102743;28;20842;-75
2022/10/11 08:42:25;;;;;;;5.68;4.93;;;19.60;91.40;;;19.69;52.74;99399.16;5106592;28;20126;-75
2022/10/11 08:45:09;;;;;;;9.02;5.80;;;19.60;91.30;;;19.67;53.09;99399.50;5086563;28;20114;-78
2022/10/11 08:47:44;;;;;;;10.02;5.63;;;19.70;91.50;;;19.70;53.29;99409.06;5089609;28;20039;-78
2022/10/11 08:50:19;;;;;;;8.02;5.25;;;19.60;91.50;;;19.73;53.11;99403.72;5074664;28;20042;-75
2022/10/11 08:53:05;;;;;;;6.80;5.22;;;19.60;91.60;;;19.79;52.99;99406.31;5071936;27;20070;-75
2022/10/11 08:55:37;;;;;;;9.10;5.15;;;19.70;91.40;;;19.82;52.72;99405.66;5083739;28;20075;-74
2022/10/11 08:58:03;;;;;;;7.15;4.68;;;19.70;91.40;;;19.84;52.79;99400.66;5083543;28;20039;-75
2022/10/11 09:00:31;;;;;;;7.40;4.68;;;19.70;91.30;;;19.86;52.72;99406.66;5073274;28;20046;-74
2022/10/11 09:03:03;;;;;;;5.07;4.53;;;19.80;91.30;;;19.87;52.91;99402.78;5074615;27;20101;-74
2022/10/11 09:05:33;;;;;;;8.35;4.47;;;19.80;91.40;;;19.87;52.85;99411.88;5103374;27;20485;-74
2022/10/11 09:08:10;;;;;;;5.50;5.00;;;19.80;91.40;;;19.85;52.55;99414.13;5091401;27;20465;-74
2022/10/11 09:11:04;;;;;;;6.18;4.43;;;19.80;91.30;;;19.87;52.70;99411.03;5109881;27;20424;-77
2022/10/11 09:13:40;;;;;;;6.82;4.53;;;19.80;91.30;;;19.95;52.50;99413.00;5109930;27;20035;-74
2022/10/11 09:16:25;;;;;;;7.68;4.63;;;19.90;91.30;;;20.01;52.48;99417.22;5121189;27;20043;-74
2022/10/11 09:19:22;;;;;;;8.10;6.00;;;19.90;91.20;;;20.03;52.26;99420.47;5104169;27;20043;-74
2022/10/11 09:22:00;;;;;;;7.95;5.50;;;19.90;91.30;;;20.03;52.66;99411.41;5106145;27;20047;-74
2022/10/11 09:24:47;;;;;;;5.70;4.78;;;19.90;91.30;;;20.11;52.18;99414.16;5121987;27;20035;-74
2022/10/11 09:27:44;;;;;;;9.30;5.05;;;20.00;91.20;;;20.10;52.14;99415.31;5119347;27;20043;-74
2022/10/11 09:30:13;;;;;;;6.65;4.97;;;19.90;91.20;;;20.10;52.20;99412.53;5104169;27;20059;-74
2022/10/11 09:32:45;;;;;;;6.55;4.93;;;20.00;91.20;;;20.14;52.00;99419.00;5104451;27;20135;-74
2022/10/11 09:35:14;;;;;;;12.15;6.00;;;20.00;91.20;;;20.11;52.18;99411.41;5103258;27;20036;-74
2022/10/11 09:38:27;;;;;;;10.15;5.07;;;20.00;91.30;;;20.11;52.23;99408.66;5100454;27;20043;-74
2022/10/11 09:41:16;;;;;;;8.98;5.78;;;20.00;91.30;;;20.22;51.86;99414.66;5120395;27;20039;-74
2022/10/11 09:43:50;;;;;;;7.38;5.85;;;20.00;91.20;;;20.28;51.91;99413.38;5076746;27;20114;-74
2022/10/11 09:46:39;;;;;;;8.57;5.47;;;20.10;91.20;;;20.27;51.57;99408.19;5089397;27;20035;-74
2022/10/11 09:49:37;;;;;;;6.50;4.68;;;20.00;91.10;;;20.25;51.87;99407.69;5089509;27;20096;-74
2022/10/11 09:52:05;;;;;;;9.20;5.05;;;20.10;91.20;;;20.27;51.84;99411.72;5050320;28;20113;-75
2022/10/11 09:54:45;;;;;;;9.77;5.22;;;20.10;91.20;;;20.26;52.06;99415.63;5047921;28;20095;-75
2022/10/11 09:57:28;;;;;;;9.82;5.97;;;20.10;91.20;;;20.22;51.99;99422.09;5052151;28;20048;-75
2022/10/11 10:00:05;;;;;;;9.60;6.45;;;20.10;91.20;;;20.21;51.95;99417.75;5062223;28;20047;-75
2022/10/11 10:02:59;;;;;;;9.13;5.35;;;20.10;91.20;;;20.24;51.82;99422.59;5065638;28;20066;-75
2022/10/11 10:05:35;;;;;;;13.02;6.43;;;20.10;91.10;;;20.27;51.82;99421.94;5038622;28;20051;-75
2022/10/11 10:08:10;;;;;;;10.13;6.63;;;20.20;91.20;;;20.23;52.00;99429.25;5049479;28;20055;-75
2022/10/11 10:10:57;;;;;;;12.48;6.60;;;20.10;91.20;;;20.27;52.12;99422.75;5074263;28;20149;-75
2022/10/11 10:13:53;;;;;;;10.05;5.78;;;20.20;91.20;;;20.31;51.81;99432.00;5054690;28;20561;-75
2022/10/11 10:16:30;;;;;;;13.52;6.53;;;20.20;91.20;;;20.28;51.62;99429.91;5053746;28;20543;-75
2022/10/11 10:18:57;;;;;;;10.70;6.30;;;20.20;91.20;;;20.31;51.81;99436.72;5051606;28;20057;-75
2022/10/11 10:21:35;;;;;;;9.55;6.20;;;20.10;91.10;;;20.31;51.85;99436.72;5065891;28;20954;-75
2022/10/11 10:24:07;;;;;;;11.88;6.90;;;20.20;91.20;;;20.33;51.86;99431.69;5095512;27;20077;-75
2022/10/11 10:26:33;;;;;;;11.98;6.38;;;20.20;91.20;;;20.40;51.55;99432.00;5089388;27;20036;-75
2022/10/11 10:29:06;;;;;;;9.50;6.93;;;20.20;91.20;;;20.40;51.60;99429.25;5088829;27;20039;-75
2022/10/11 10:31:37;;;;;;;10.48;6.00;;;20.20;91.10;;;20.45;51.61;99434.59;5119839;27;20036;-75
2022/10/11 10:34:11;;;;;;;7.40;5.70;;;20.30;91.10;;;20.34;51.53;99431.34;5101864;27;20054;-75
2022/10/11 10:36:38;;;;;;;11.07;5.88;;;20.40;91.00;;;20.32;51.77;99432.81;5077129;27;20043;-75
2022/10/11 10:39:43;;;;;;;10.50;6.60;;;20.40;91.00;;;20.32;51.86;99438.31;5088023;27;20039;-75
2022/10/11 10:42:15;;;;;;;10.40;6.55;;;20.40;90.90;;;20.47;51.56;99440.59;5079225;27;20057;-75
2022/10/11 10:44:42;;;;;;;9.18;5.85;;;20.50;90.90;;;20.38;52.12;99437.84;5102461;27;20031;-75